createdAt,value
2023-01-15T00:01:56.144Z,0.90
2023-01-15T00:04:22.843Z,1.27
2023-01-15T00:06:50.591Z,1.17
2023-01-15T00:09:17.334Z,1.88
2023-01-15T00:11:44.160Z,1.65
2023-01-15T00:14:12.440Z,1.52
2023-01-15T00:16:40.688Z,1.95
2023-01-15T00:19:10.875Z,1.70
2023-01-15T00:21:38.924Z,1.38
2023-01-15T00:24:24.331Z,1.75
2023-01-15T00:27:09.806Z,1.75
2023-01-15T00:29:36.496Z,2.20
2023-01-15T00:32:06.347Z,1.55
2023-01-15T00:34:33.891Z,2.35
2023-01-15T00:37:01.627Z,2.20
2023-01-15T00:39:28.611Z,2.33
2023-01-15T00:41:55.871Z,1.98
2023-01-15T00:44:22.998Z,1.88
2023-01-15T00:46:49.821Z,2.00
2023-01-15T00:49:17.482Z,2.55
2023-01-15T00:51:44.147Z,2.58
2023-01-15T00:54:11.063Z,2.25
2023-01-15T00:56:37.789Z,1.65
2023-01-15T00:59:05.361Z,1.63
2023-01-15T01:01:32.141Z,2.30
2023-01-15T01:03:59.005Z,1.75
2023-01-15T01:06:25.855Z,1.95
2023-01-15T01:08:52.610Z,1.73
2023-01-15T01:11:24.024Z,2.22
2023-01-15T01:16:37.610Z,3.15
2023-01-15T01:19:11.321Z,2.05
2023-01-15T01:21:39.311Z,3.33
2023-01-15T01:24:06.800Z,2.40
2023-01-15T01:26:34.564Z,2.25
2023-01-15T01:29:01.302Z,2.00
2023-01-15T01:31:28.177Z,3.78
2023-01-15T01:33:57.241Z,3.20
2023-01-15T01:36:50.379Z,2.00
2023-01-15T01:39:19.080Z,1.70
2023-01-15T01:41:46.512Z,2.17
2023-01-15T01:44:32.252Z,1.98
2023-01-15T01:47:01.443Z,2.00
2023-01-15T01:49:28.355Z,1.92
2023-01-15T01:52:16.794Z,2.45
2023-01-15T01:54:46.539Z,2.10
2023-01-15T01:57:14.652Z,2.15
2023-01-15T01:59:41.473Z,2.42
2023-01-15T02:02:08.460Z,2.08
2023-01-15T02:04:37.410Z,2.53
2023-01-15T02:07:04.208Z,2.60
2023-01-15T02:09:31.362Z,2.22
2023-01-15T02:12:06.689Z,2.00
2023-01-15T02:14:37.290Z,2.65
2023-01-15T02:17:09.800Z,2.63
2023-01-15T02:19:50.729Z,2.80
2023-01-15T02:22:29.253Z,2.28
2023-01-15T02:25:22.835Z,2.30
2023-01-15T02:27:59.939Z,2.03
2023-01-15T02:30:37.805Z,2.35
2023-01-15T02:33:18.125Z,2.53
2023-01-15T02:36:06.629Z,2.20
2023-01-15T02:38:40.243Z,2.47
2023-01-15T02:41:16.350Z,2.72
2023-01-15T02:43:49.992Z,3.17
2023-01-15T02:46:18.904Z,2.03
2023-01-15T02:48:50.087Z,2.75
2023-01-15T02:51:21.633Z,3.13
2023-01-15T02:56:20.087Z,3.67
2023-01-15T02:58:49.887Z,2.23
2023-01-15T03:01:25.021Z,2.47
2023-01-15T03:04:17.721Z,2.70
2023-01-15T03:07:15.917Z,2.60
2023-01-15T03:09:43.450Z,2.28
2023-01-15T03:12:24.744Z,2.35
2023-01-15T03:15:11.026Z,1.85
2023-01-15T03:17:53.808Z,1.90
2023-01-15T03:20:25.221Z,1.83
2023-01-15T03:25:27.933Z,1.50
2023-01-15T03:27:59.582Z,2.20
2023-01-15T03:30:26.332Z,2.03
2023-01-15T03:32:54.676Z,1.75
2023-01-15T03:35:40.168Z,1.63
2023-01-15T03:38:06.962Z,1.88
2023-01-15T03:40:42.176Z,1.70
2023-01-15T03:43:33.379Z,2.88
2023-01-15T03:46:06.576Z,1.90
2023-01-15T03:48:49.036Z,1.75
2023-01-15T03:51:23.401Z,1.67
2023-01-15T03:53:55.032Z,2.40
2023-01-15T03:56:34.138Z,2.70
2023-01-15T03:59:19.931Z,1.92
2023-01-15T04:01:49.199Z,2.72
2023-01-15T04:04:16.918Z,2.05
2023-01-15T04:06:44.016Z,2.00
2023-01-15T04:09:13.403Z,1.83
2023-01-15T04:11:40.289Z,1.88
2023-01-15T04:14:07.211Z,2.13
2023-01-15T04:16:35.089Z,2.13
2023-01-15T04:19:02.050Z,1.95
2023-01-15T04:21:28.789Z,2.38
2023-01-15T04:23:55.467Z,2.13
2023-01-15T04:26:22.353Z,1.80
2023-01-15T04:28:49.420Z,1.88
2023-01-15T04:31:16.331Z,2.30
2023-01-15T04:33:43.091Z,2.60
2023-01-15T04:36:10.229Z,2.20
2023-01-15T04:38:38.385Z,2.97
2023-01-15T04:41:24.322Z,2.30
2023-01-15T04:44:09.397Z,2.67
2023-01-15T04:46:47.748Z,1.98
2023-01-15T04:49:16.889Z,2.58
2023-01-15T04:51:43.946Z,2.20
2023-01-15T04:54:13.223Z,2.38
2023-01-15T04:56:45.562Z,2.53
2023-01-15T04:59:13.491Z,2.00
2023-01-15T05:01:44.348Z,2.60
2023-01-15T05:04:15.654Z,2.63
2023-01-15T05:06:42.379Z,2.40
2023-01-15T05:09:09.138Z,2.47
2023-01-15T05:11:37.479Z,2.38
2023-01-15T05:14:05.627Z,2.20
2023-01-15T05:16:33.360Z,2.00
2023-01-15T05:19:02.512Z,2.35
2023-01-15T05:21:32.031Z,2.60
2023-01-15T05:24:00.647Z,2.70
2023-01-15T05:26:29.996Z,2.80
2023-01-15T05:28:58.415Z,2.33
2023-01-15T05:31:26.383Z,2.53
2023-01-15T05:33:54.416Z,2.22
2023-01-15T05:36:27.746Z,3.42
2023-01-15T05:38:55.634Z,2.92
2023-01-15T05:41:41.353Z,3.30
2023-01-15T05:44:10.561Z,2.30
2023-01-15T05:46:39.819Z,2.47
2023-01-15T05:49:09.451Z,2.58
2023-01-15T05:51:37.835Z,2.53
2023-01-15T05:54:06.375Z,3.03
2023-01-15T05:56:35.770Z,2.55
2023-01-15T05:59:02.520Z,2.38
2023-01-15T06:01:29.364Z,2.95
2023-01-15T06:04:02.020Z,2.92
2023-01-15T06:06:29.492Z,2.50
2023-01-15T06:08:56.125Z,3.22
2023-01-15T06:11:23.133Z,2.38
2023-01-15T06:13:50.026Z,2.60
2023-01-15T06:16:18.542Z,2.72
2023-01-15T06:18:45.589Z,2.70
2023-01-15T06:21:13.576Z,2.50
2023-01-15T06:23:41.313Z,2.80
2023-01-15T06:26:12.346Z,2.90
2023-01-15T06:28:39.393Z,2.42
2023-01-15T06:31:08.008Z,2.60
2023-01-15T06:33:35.125Z,3.20
2023-01-15T06:36:11.063Z,2.15
2023-01-15T06:38:38.569Z,3.75
2023-01-15T06:41:27.110Z,3.00
2023-01-15T06:44:12.580Z,2.53
2023-01-15T06:47:03.424Z,3.05
2023-01-15T06:49:31.230Z,2.53
2023-01-15T06:51:58.129Z,3.55
2023-01-15T06:54:24.899Z,3.17
2023-01-15T06:56:51.759Z,2.75
2023-01-15T06:59:19.140Z,2.40
2023-01-15T07:01:45.899Z,2.97
2023-01-15T07:04:12.858Z,2.58
2023-01-15T07:06:39.778Z,2.40
2023-01-15T07:09:06.779Z,3.33
2023-01-15T07:11:34.007Z,2.53
2023-01-15T07:14:06.458Z,2.53
2023-01-15T07:16:36.601Z,2.35
2023-01-15T07:19:04.250Z,2.47
2023-01-15T07:21:31.053Z,3.15
2023-01-15T07:24:01.298Z,2.85
2023-01-15T07:26:28.556Z,2.38
2023-01-15T07:28:55.224Z,2.42
2023-01-15T07:31:21.918Z,3.00
2023-01-15T07:33:48.601Z,2.20
2023-01-15T07:36:15.324Z,3.30
2023-01-15T07:38:42.113Z,2.30
2023-01-15T07:41:27.620Z,2.35
2023-01-15T07:44:12.932Z,2.95
2023-01-15T07:46:58.422Z,2.47
2023-01-15T07:49:43.829Z,2.85
2023-01-15T07:52:10.775Z,3.53
2023-01-15T07:54:37.433Z,2.92
2023-01-15T07:57:04.619Z,3.58
2023-01-15T07:59:31.330Z,2.80
2023-01-15T08:01:58.127Z,2.80
2023-01-15T08:04:24.967Z,2.88
2023-01-15T08:06:51.624Z,2.88
2023-01-15T08:09:18.263Z,3.72
2023-01-15T08:12:03.558Z,3.00
2023-01-15T08:14:48.786Z,3.25
2023-01-15T08:17:15.450Z,2.90
2023-01-15T08:19:42.134Z,2.65
2023-01-15T08:22:11.503Z,3.15
2023-01-15T08:24:38.413Z,3.20
2023-01-15T08:27:06.103Z,3.17
2023-01-15T08:29:33.104Z,3.00
2023-01-15T08:32:01.429Z,3.10
2023-01-15T08:34:29.370Z,3.28
2023-01-15T08:36:59.907Z,2.97
2023-01-15T08:39:27.815Z,3.07
2023-01-15T08:41:56.222Z,2.75
2023-01-15T08:44:23.699Z,2.85
2023-01-15T08:46:54.003Z,3.08
2023-01-15T08:49:21.555Z,2.22
2023-01-15T08:51:51.724Z,2.72
2023-01-15T08:54:20.563Z,2.38
2023-01-15T08:56:48.253Z,2.42
2023-01-15T08:59:15.035Z,2.95
2023-01-15T09:01:42.079Z,2.42
2023-01-15T09:04:13.616Z,2.63
2023-01-15T09:09:07.400Z,2.42
2023-01-15T09:11:34.345Z,2.92
2023-01-15T09:14:00.989Z,2.90
2023-01-15T09:16:27.928Z,3.30
2023-01-15T09:18:54.772Z,3.13
2023-01-15T09:21:21.405Z,2.85
2023-01-15T09:23:48.329Z,3.30
2023-01-15T09:26:31.443Z,2.90
2023-01-15T09:28:59.453Z,2.50
2023-01-15T09:31:28.912Z,2.30
2023-01-15T09:33:55.744Z,2.47
2023-01-15T09:36:29.288Z,3.42
2023-01-15T09:38:57.235Z,2.90
2023-01-15T09:41:44.289Z,2.65
2023-01-15T09:44:29.289Z,2.33
2023-01-15T09:46:55.944Z,2.78
2023-01-15T09:49:26.204Z,3.53
2023-01-15T09:51:59.588Z,3.50
2023-01-15T09:54:43.371Z,3.28
2023-01-15T09:57:13.717Z,2.85
2023-01-15T09:59:44.387Z,3.33
2023-01-15T10:02:30.302Z,2.67
2023-01-15T10:05:09.088Z,2.78
2023-01-15T10:08:04.303Z,3.00
2023-01-15T10:10:40.975Z,3.33
2023-01-15T10:13:30.796Z,3.28
2023-01-15T10:15:58.551Z,3.45
2023-01-15T10:18:26.939Z,2.67
2023-01-15T10:21:07.509Z,2.83
2023-01-15T10:23:40.332Z,3.28
2023-01-15T10:26:34.707Z,3.65
2023-01-15T10:29:37.190Z,3.63
2023-01-15T10:32:19.160Z,3.40
2023-01-15T10:35:08.716Z,4.40
2023-01-15T10:37:58.857Z,3.40
2023-01-15T10:40:31.299Z,2.78
2023-01-15T10:43:19.742Z,4.00
2023-01-15T10:46:02.921Z,2.95
2023-01-15T10:48:42.698Z,3.47
2023-01-15T10:51:31.597Z,2.53
2023-01-15T10:54:35.173Z,3.28
2023-01-15T10:57:12.401Z,2.88
2023-01-15T10:59:59.142Z,2.92
2023-01-15T11:02:32.028Z,2.65
2023-01-15T11:04:58.907Z,2.97
2023-01-15T11:08:02.737Z,3.58
2023-01-15T11:10:27.185Z,3.33
2023-01-15T11:13:38.890Z,2.90
2023-01-15T11:16:24.762Z,3.35
2023-01-15T11:19:10.265Z,2.58
2023-01-15T11:21:42.386Z,3.40
2023-01-15T11:24:16.531Z,2.83
2023-01-15T11:26:48.688Z,2.78
2023-01-15T11:29:24.528Z,3.85
2023-01-15T11:31:51.194Z,3.00
2023-01-15T11:34:22.311Z,3.15
2023-01-15T11:36:49.606Z,3.45
2023-01-15T11:39:28.195Z,3.03
2023-01-15T11:42:22.168Z,2.60
2023-01-15T11:45:15.998Z,3.50
2023-01-15T11:48:11.969Z,2.95
2023-01-15T11:50:55.846Z,3.00
2023-01-15T11:53:29.383Z,2.78
2023-01-15T11:56:00.823Z,3.35
2023-01-15T12:01:06.032Z,3.08
2023-01-15T12:03:36.242Z,3.55
2023-01-15T12:06:06.625Z,2.63
2023-01-15T12:08:51.958Z,3.22
2023-01-15T12:11:26.660Z,3.58
2023-01-15T12:13:56.564Z,2.90
2023-01-15T12:17:01.674Z,2.47
2023-01-15T12:19:37.715Z,2.90
2023-01-15T12:22:29.118Z,2.95
2023-01-15T12:25:12.994Z,2.90
2023-01-15T12:27:52.483Z,3.05
2023-01-15T12:30:25.218Z,3.28
2023-01-15T12:33:23.278Z,3.17
2023-01-15T12:36:01.070Z,3.58
2023-01-15T12:38:55.735Z,3.05
2023-01-15T12:42:01.559Z,3.88
2023-01-15T12:44:54.628Z,2.35
2023-01-15T12:47:42.907Z,3.25
2023-01-15T12:50:36.760Z,2.33
2023-01-15T12:53:50.316Z,3.08
2023-01-15T12:56:36.999Z,2.80
2023-01-15T12:59:26.783Z,2.25
2023-01-15T13:01:58.645Z,2.83
2023-01-15T13:04:50.290Z,2.92
2023-01-15T13:07:27.522Z,3.10
2023-01-15T13:10:07.027Z,3.03
2023-01-15T13:12:34.219Z,2.70
2023-01-15T13:15:06.673Z,2.35
2023-01-15T13:17:46.940Z,3.40
2023-01-15T13:20:29.439Z,2.58
2023-01-15T13:22:59.093Z,3.38
2023-01-15T13:25:31.924Z,3.15
2023-01-15T13:28:12.884Z,2.90
2023-01-15T13:31:04.225Z,3.70
2023-01-15T13:33:44.418Z,3.67
2023-01-15T13:36:11.139Z,3.33
2023-01-15T13:38:47.806Z,3.45
2023-01-15T13:41:59.665Z,3.70
2023-01-15T13:44:44.941Z,3.60
2023-01-15T13:47:17.554Z,4.38
2023-01-15T13:49:52.077Z,4.38
2023-01-15T13:52:28.931Z,4.68
2023-01-15T13:55:00.188Z,3.78
2023-01-15T13:57:40.381Z,3.35
2023-01-15T14:00:28.741Z,3.10
2023-01-15T14:02:59.106Z,3.15
2023-01-15T14:05:36.153Z,3.35
2023-01-15T14:08:16.174Z,3.13
2023-01-15T14:10:43.049Z,3.33
2023-01-15T14:13:37.845Z,5.03
2023-01-15T14:16:57.127Z,3.13
2023-01-15T14:19:57.553Z,4.93
2023-01-15T14:22:48.544Z,4.35
2023-01-15T14:25:41.718Z,4.18
2023-01-15T14:28:22.554Z,3.55
2023-01-15T14:30:56.971Z,3.30
2023-01-15T14:33:58.606Z,3.97
2023-01-15T14:36:29.379Z,2.72
2023-01-15T14:39:00.468Z,2.63
2023-01-15T14:41:57.293Z,3.50
2023-01-15T14:44:30.673Z,3.42
2023-01-15T14:47:04.214Z,2.88
2023-01-15T14:49:42.111Z,2.97
2023-01-15T14:52:09.374Z,3.22
2023-01-15T14:54:38.187Z,3.13
2023-01-15T14:57:08.284Z,2.58
2023-01-15T15:00:00.286Z,2.90
2023-01-15T15:02:43.847Z,2.60
2023-01-15T15:05:17.616Z,2.55
2023-01-15T15:07:48.438Z,3.25
2023-01-15T15:10:33.739Z,2.30
2023-01-15T15:13:16.374Z,2.00
2023-01-15T15:16:07.476Z,2.53
2023-01-15T15:18:48.822Z,3.92
2023-01-15T15:21:20.707Z,2.20
2023-01-15T15:23:59.687Z,1.63
2023-01-15T15:26:31.825Z,1.85
2023-01-15T15:29:04.270Z,1.73
2023-01-15T15:31:48.146Z,1.85
2023-01-15T15:34:32.864Z,2.22
2023-01-15T15:37:03.030Z,1.45
2023-01-15T15:39:45.524Z,1.92
2023-01-15T15:42:55.432Z,2.33
2023-01-15T15:45:46.873Z,1.60
2023-01-15T15:48:45.665Z,1.65
2023-01-15T15:51:32.958Z,1.08
2023-01-15T15:54:29.671Z,1.40
2023-01-15T15:57:09.620Z,1.40
2023-01-15T15:59:46.091Z,1.30
2023-01-15T16:02:25.476Z,1.50
2023-01-15T16:04:54.890Z,0.93
2023-01-15T16:07:33.791Z,1.70
2023-01-15T16:10:18.544Z,1.30
2023-01-15T16:12:49.383Z,1.58
2023-01-15T16:15:29.455Z,1.10
2023-01-15T16:17:57.759Z,1.10
2023-01-15T16:20:25.687Z,1.42
2023-01-15T16:22:56.884Z,1.92
2023-01-15T16:25:40.148Z,1.70
2023-01-15T16:28:07.610Z,1.80
2023-01-15T16:30:34.519Z,1.75
2023-01-15T16:33:05.573Z,2.30
2023-01-15T16:35:36.138Z,1.70
2023-01-15T16:38:04.307Z,2.00
2023-01-15T16:40:32.249Z,2.05
2023-01-15T16:43:04.282Z,2.28
2023-01-15T16:45:31.414Z,2.05
2023-01-15T16:48:03.008Z,1.92
2023-01-15T16:50:32.335Z,2.28
2023-01-15T16:53:01.975Z,2.10
2023-01-15T16:55:34.737Z,2.03
2023-01-15T16:58:13.312Z,2.63
2023-01-15T17:00:41.872Z,3.15
2023-01-15T17:03:29.968Z,3.10
2023-01-15T17:06:06.104Z,2.00
2023-01-15T17:08:38.823Z,2.45
2023-01-15T17:11:16.581Z,2.30
2023-01-15T17:13:43.247Z,2.53
2023-01-15T17:16:17.430Z,2.78
2023-01-15T17:18:44.231Z,3.60
2023-01-15T17:21:21.608Z,1.95
2023-01-15T17:23:49.083Z,2.38
2023-01-15T17:26:22.332Z,2.65
2023-01-15T17:28:49.502Z,1.75
2023-01-15T17:31:33.586Z,1.95
2023-01-15T17:34:02.195Z,2.00
2023-01-15T17:36:29.950Z,2.60
2023-01-15T17:38:57.106Z,2.33
2023-01-15T17:41:24.411Z,2.42
2023-01-15T17:43:51.857Z,2.30
2023-01-15T17:46:18.777Z,2.28
2023-01-15T17:48:45.460Z,2.35
2023-01-15T17:51:14.332Z,1.83
2023-01-15T17:53:41.256Z,1.88
2023-01-15T17:56:27.200Z,2.08
2023-01-15T17:59:29.424Z,2.28
2023-01-15T18:02:15.307Z,2.60
2023-01-15T18:05:05.819Z,1.92
2023-01-15T18:07:37.636Z,2.03
2023-01-15T18:10:05.361Z,1.58
2023-01-15T18:12:32.057Z,2.15
2023-01-15T18:14:58.791Z,2.30
2023-01-15T18:17:25.499Z,1.55
2023-01-15T18:19:52.783Z,1.55
2023-01-15T18:22:20.153Z,2.40
2023-01-15T18:24:46.978Z,1.52
2023-01-15T18:27:13.682Z,1.90
2023-01-15T18:29:40.486Z,1.55
2023-01-15T18:32:10.477Z,0.80
2023-01-15T18:34:37.609Z,1.83
2023-01-15T18:37:04.770Z,1.10
2023-01-15T18:39:31.607Z,1.52
2023-01-15T18:41:58.262Z,1.35
2023-01-15T18:44:44.535Z,1.13
2023-01-15T18:47:13.930Z,1.02
2023-01-15T18:49:42.528Z,1.92
2023-01-15T18:52:29.544Z,1.27
2023-01-15T18:54:56.568Z,2.40
2023-01-15T18:57:24.161Z,1.10
2023-01-15T18:59:51.657Z,1.23
2023-01-15T19:02:20.942Z,1.42
2023-01-15T19:04:48.167Z,1.33
2023-01-15T19:07:15.624Z,1.90
2023-01-15T19:09:42.389Z,1.98
2023-01-15T19:12:09.286Z,1.55
2023-01-15T19:14:54.858Z,1.25
2023-01-15T19:17:44.216Z,1.20
2023-01-15T19:20:15.541Z,1.42
2023-01-15T19:23:02.727Z,1.38
2023-01-15T19:25:36.809Z,1.58
2023-01-15T19:28:03.687Z,1.50
2023-01-15T19:30:32.097Z,1.30
2023-01-15T19:32:58.833Z,1.92
2023-01-15T19:35:25.536Z,0.90
2023-01-15T19:37:53.521Z,1.23
2023-01-15T19:40:23.535Z,1.77
2023-01-15T19:43:09.780Z,1.73
2023-01-15T19:45:58.801Z,1.15
2023-01-15T19:48:44.534Z,0.95
2023-01-15T19:51:11.178Z,1.50
2023-01-15T19:53:40.119Z,1.20
2023-01-15T19:56:07.939Z,0.90
2023-01-15T19:58:35.496Z,1.05
2023-01-15T20:01:02.973Z,1.17
2023-01-15T20:03:30.265Z,1.42
2023-01-15T20:05:57.645Z,1.90
2023-01-15T20:08:24.385Z,1.23
2023-01-15T20:10:51.660Z,1.40
2023-01-15T20:13:39.439Z,1.35
2023-01-15T20:16:15.368Z,1.90
2023-01-15T20:18:42.017Z,1.45
2023-01-15T20:21:12.174Z,0.98
2023-01-15T20:23:40.130Z,1.02
2023-01-15T20:26:12.815Z,1.35
2023-01-15T20:28:42.493Z,1.70
2023-01-15T20:31:17.494Z,1.67
2023-01-15T20:33:44.538Z,1.20
2023-01-15T20:36:11.246Z,1.63
2023-01-15T20:38:37.913Z,1.25
2023-01-15T20:41:28.079Z,0.82
2023-01-15T20:44:13.747Z,1.42
2023-01-15T20:46:40.557Z,0.80
2023-01-15T20:49:26.978Z,1.25
2023-01-15T20:51:54.843Z,1.80
2023-01-15T20:54:22.831Z,1.10
2023-01-15T20:56:49.543Z,1.08
2023-01-15T20:59:16.207Z,1.05
2023-01-15T21:01:43.267Z,1.20
2023-01-15T21:04:10.610Z,0.77
2023-01-15T21:06:37.347Z,0.60
2023-01-15T21:09:04.051Z,0.68
2023-01-15T21:11:30.702Z,0.45
2023-01-15T21:13:57.512Z,0.70
2023-01-15T21:16:24.230Z,0.63
2023-01-15T21:18:50.993Z,0.95
2023-01-15T21:21:19.200Z,1.08
2023-01-15T21:23:46.080Z,0.60
2023-01-15T21:26:13.955Z,0.88
2023-01-15T21:28:40.840Z,1.15
2023-01-15T21:31:09.116Z,1.00
2023-01-15T21:33:36.440Z,1.08
2023-01-15T21:36:08.213Z,0.82
2023-01-15T21:38:35.068Z,1.27
2023-01-15T21:41:13.745Z,0.85
2023-01-15T21:43:59.513Z,1.13
2023-01-15T21:46:27.864Z,1.33
2023-01-15T21:48:56.195Z,1.20
2023-01-15T21:51:23.723Z,1.00
2023-01-15T21:53:50.486Z,1.20
2023-01-15T21:56:17.195Z,1.10
2023-01-15T21:58:43.896Z,1.00
2023-01-15T22:01:12.231Z,1.40
2023-01-15T22:03:39.703Z,0.80
2023-01-15T22:06:07.823Z,1.45
2023-01-15T22:08:35.045Z,1.40
2023-01-15T22:11:03.804Z,1.20
2023-01-15T22:13:30.530Z,1.48
2023-01-15T22:15:57.185Z,1.45
2023-01-15T22:18:27.872Z,1.42
2023-01-15T22:21:02.883Z,1.30
2023-01-15T22:23:29.731Z,1.38
2023-01-15T22:25:56.699Z,1.67
2023-01-15T22:28:23.916Z,1.35
2023-01-15T22:30:50.634Z,1.50
2023-01-15T22:33:17.803Z,1.45
2023-01-15T22:35:44.460Z,1.40
2023-01-15T22:38:11.168Z,1.77
2023-01-15T22:40:37.840Z,2.10
2023-01-15T22:43:04.512Z,1.20
2023-01-15T22:45:31.145Z,1.65
2023-01-15T22:47:57.792Z,1.40
2023-01-15T22:50:24.433Z,1.70
2023-01-15T22:52:51.107Z,1.20
2023-01-15T22:55:17.754Z,1.83
2023-01-15T22:57:47.409Z,1.58
2023-01-15T23:00:14.548Z,1.60
2023-01-15T23:02:57.625Z,1.90
2023-01-15T23:05:24.791Z,1.60
2023-01-15T23:07:51.636Z,2.33
2023-01-15T23:10:18.609Z,2.10
2023-01-15T23:12:45.373Z,1.67
2023-01-15T23:15:13.954Z,1.25
2023-01-15T23:17:41.096Z,1.75
2023-01-15T23:20:10.011Z,2.17
2023-01-15T23:22:36.843Z,1.42
2023-01-15T23:25:03.888Z,1.73
2023-01-15T23:27:30.791Z,1.20
2023-01-15T23:29:57.550Z,2.00
2023-01-15T23:32:24.347Z,1.30
2023-01-15T23:34:51.134Z,1.10
2023-01-15T23:37:17.815Z,1.23
2023-01-15T23:39:44.584Z,1.50
2023-01-15T23:42:29.714Z,1.80
2023-01-15T23:45:15.161Z,1.85
2023-01-15T23:47:41.893Z,2.35
2023-01-15T23:50:09.087Z,1.23
2023-01-15T23:52:36.164Z,1.23
2023-01-15T23:55:02.950Z,1.92
2023-01-15T23:57:29.702Z,1.88
2023-01-15T23:59:56.569Z,1.60
